Aérodrome :
LOGIN :

S'inscrire | Disclaimer

   EN    FR    IT 

 










Légende :    VFR   VFR Marginal   IFR   IFR Intensif   IFR Très Intensif
Visi : 
Plafond : 
>= 8 km
>= 3000ft
5 à 8 km
1000 à 3000 ft
1500m à 5 km
500 à 1000 ft
800 à 1500m
200 à 500 ft
< 800m
< 200 ft
Symboles :   Orages  Brouillard  Fortes neiges  Fortes précipitations  Vent > 20 kt
SIGMETs :   Divers  Orages  Givrage  Turbulence  Onde Orograph.  Cendres Volcan.







- Altitude de l'aérodrome : 102 ft
- Code IATA : EXT
- Voir les cartes d'approche


EGTE - Exeter

DERNIER METAR :
  • 301220Z 18005KT 6000 -RA FEW007 BKN010 09/08 Q0996 RERA

METARs EXPIRÉS :
  • 301150Z 16006KT 130V190 5000 RA BR SCT015 SCT025 09/08 Q0996
  • 301120Z 16007KT 5000 RA BR FEW015 SCT022 09/08 Q0996
  • 301050Z 12014KT 4000 RA BR SCT020 SCT040 09/08 Q0996
  • 301020Z 09012KT 9000 FEW020 10/09 Q0996
  • 300950Z 10012KT 9000 -SHRA FEW025 10/09 Q0996

TAF AMD TAF EGTE
Valide du 30 à 12h jusqu'au 30 à 21h UTC


301235Z 3012/3021 15012KT 8000 FEW015 SCT045
TEMPO 3012/3017 12017G27KT RA SHRA BKN012
PROB40
TEMPO 3012/3016 4000 +SHRA BKN007
TEMPO 3017/3021 RA SHRA BKN012
Pas de NOTAMs connus pour ce terrain.



MET'MAP, la Météo Aéronautique d'un coup d'oeil ! - Copyright ORBIFLY Décembre 2007 - Disclaimer

ORBIFLY MET'MAP TEAM :

Programmation & Développement : Alexandra Zaïnal
Conception & Développement : Baudouin d'Aumeries
Co-Programmation & Développement : Marc-Olivier Méhu
Soutien technique & logistique : Manuel Goepfert

Contact : metmap@orbifly.com




SOURCES & CREDITS :

   NOAA